Time;durP1;ratioP1;P1;durP2;ratioP2;P2;SDS_P1;SDS_P2;PMS_P1;PMS_P2;Temp;Humidity;BMP_temperature;BMP_pressure;BME280_temperature;BME280_humidity;BME280_pressure;Samples;Min_cycle;Max_cycle;Signal;HPM_P1;HPM_P2
2023/02/15 00:01:39;;;;;;;90.00;51.13;;;4.20;99.90;;;;;;5093993;28;20429;-80
2023/02/15 00:04:07;;;;;;;91.00;50.07;;;4.20;99.90;;;;;;5093876;28;20232;-81
2023/02/15 00:06:35;;;;;;;84.67;47.97;;;4.10;99.90;;;;;;5095094;28;20474;-81
2023/02/15 00:09:03;;;;;;;88.83;49.00;;;4.20;99.90;;;;;;5084905;28;20457;-81
2023/02/15 00:11:44;;;;;;;78.00;47.83;;;4.10;99.90;;;;;;5090086;28;20462;-80
2023/02/15 00:14:15;;;;;;;87.53;48.23;;;4.00;99.90;;;;;;5091662;28;20225;-80
2023/02/15 00:16:43;;;;;;;85.20;49.13;;;4.00;99.90;;;;;;5091618;28;20446;-79
2023/02/15 00:19:13;;;;;;;83.80;48.43;;;4.00;99.90;;;;;;5095944;28;20452;-80
2023/02/15 00:21:51;;;;;;;85.37;49.40;;;3.90;99.90;;;;;;5087168;28;20446;-81
2023/02/15 00:24:22;;;;;;;85.57;47.57;;;4.00;99.90;;;;;;5096479;28;20843;-81
2023/02/15 00:26:50;;;;;;;88.00;48.77;;;3.90;99.90;;;;;;5095881;28;20579;-82
2023/02/15 00:29:19;;;;;;;87.53;48.40;;;3.90;99.90;;;;;;5096569;28;20795;-82
2023/02/15 00:31:46;;;;;;;99.85;59.95;;;3.90;99.90;;;;;;5092952;28;20431;-79
2023/02/15 00:34:23;;;;;;;90.30;52.30;;;4.00;99.90;;;;;;5087274;28;20228;-79
2023/02/15 00:36:51;;;;;;;90.90;49.83;;;4.10;99.90;;;;;;5093752;28;20437;-78
2023/02/15 00:39:19;;;;;;;101.77;52.43;;;4.20;99.90;;;;;;5096100;28;20524;-82
2023/02/15 00:41:47;;;;;;;96.13;51.97;;;4.30;99.90;;;;;;5094962;28;20445;-80
2023/02/15 00:44:15;;;;;;;97.27;51.33;;;4.30;99.90;;;;;;5082961;28;20237;-80
2023/02/15 00:46:43;;;;;;;100.03;53.87;;;4.40;99.90;;;;;;5094363;28;20753;-79
2023/02/15 00:49:11;;;;;;;101.20;54.53;;;4.50;99.90;;;;;;5087709;28;20467;-80
2023/02/15 00:51:39;;;;;;;100.90;54.93;;;4.50;99.90;;;;;;5086513;28;20459;-80
2023/02/15 00:54:09;;;;;;;99.90;54.97;;;4.50;99.90;;;;;;5086226;28;20470;-81
2023/02/15 00:56:38;;;;;;;96.87;51.67;;;4.50;99.90;;;;;;5090120;28;20288;-81
2023/02/15 00:59:04;;;;;;;103.73;53.43;;;4.50;99.90;;;;;;5091944;28;20202;-80
2023/02/15 01:01:33;;;;;;;114.40;68.15;;;4.50;99.90;;;;;;5085231;28;20440;-81
2023/02/15 01:03:59;;;;;;;98.07;56.07;;;4.60;99.90;;;;;;5095031;28;20229;-80
2023/02/15 01:06:29;;;;;;;102.70;55.90;;;4.50;99.90;;;;;;5094869;28;20201;-80
2023/02/15 01:08:56;;;;;;;104.30;55.33;;;4.50;99.90;;;;;;5095018;28;20201;-80
2023/02/15 01:11:24;;;;;;;107.47;56.50;;;4.40;99.90;;;;;;5094829;28;20205;-81
2023/02/15 01:13:53;;;;;;;104.10;56.63;;;4.40;99.90;;;;;;5082508;28;20476;-81
2023/02/15 01:16:21;;;;;;;101.77;55.43;;;4.40;99.90;;;;;;5094619;28;20545;-79
2023/02/15 01:18:48;;;;;;;102.80;56.47;;;4.40;99.90;;;;;;5081735;28;20532;-81
2023/02/15 01:21:18;;;;;;;101.03;54.70;;;4.40;99.90;;;;;;5081687;28;20216;-80
2023/02/15 01:23:45;;;;;;;98.67;53.13;;;4.30;99.90;;;;;;5093039;28;20241;-79
2023/02/15 01:26:13;;;;;;;97.37;54.93;;;4.30;99.90;;;;;;5094665;28;20283;-80
2023/02/15 01:28:42;;;;;;;99.97;52.67;;;4.30;99.90;;;;;;5094301;28;20445;-80
2023/02/15 01:31:12;;;;;;;110.67;63.87;;;4.20;99.90;;;;;;5094317;28;20421;-81
2023/02/15 01:33:41;;;;;;;101.37;56.43;;;4.30;99.90;;;;;;5095571;28;20209;-79
2023/02/15 01:36:08;;;;;;;96.13;53.57;;;4.20;99.90;;;;;;5094941;28;20445;-82
2023/02/15 01:38:36;;;;;;;92.40;51.67;;;4.10;99.90;;;;;;5094509;28;20434;-80
2023/02/15 01:43:48;;;;;;;80.87;49.17;;;4.00;99.90;;;;;;5092480;28;20287;-80
2023/02/15 01:46:17;;;;;;;90.33;49.07;;;3.90;99.90;;;;;;5095955;28;20802;-79
2023/02/15 01:48:47;;;;;;;88.63;48.70;;;3.80;99.90;;;;;;5095733;28;20445;-79
2023/02/15 01:51:19;;;;;;;91.23;50.10;;;3.70;99.90;;;;;;5096890;28;20818;-78
2023/02/15 01:53:51;;;;;;;87.60;49.80;;;3.60;99.90;;;;;;5095409;28;20453;-82
2023/02/15 01:56:22;;;;;;;91.03;49.37;;;3.60;99.90;;;;;;5087527;28;20469;-79
2023/02/15 01:58:57;;;;;;;92.17;50.03;;;3.50;99.90;;;;;;5088212;28;20481;-81
2023/02/15 02:01:25;;;;;;;85.57;47.47;;;3.40;99.90;;;;;;5089330;28;20557;-79
2023/02/15 02:04:00;;;;;;;89.20;49.83;;;3.40;99.90;;;;;;5098521;28;20567;-81
2023/02/15 02:06:31;;;;;;;89.33;49.00;;;3.30;99.90;;;;;;5088438;28;20536;-79
2023/02/15 02:08:58;;;;;;;93.13;50.43;;;3.10;99.90;;;;;;5103781;28;20944;-80
2023/02/15 02:11:26;;;;;;;90.27;50.00;;;3.10;99.90;;;;;;5101829;28;20460;-81
2023/02/15 02:13:56;;;;;;;93.57;48.90;;;3.10;99.90;;;;;;5102968;28;20480;-82
2023/02/15 02:16:26;;;;;;;85.13;49.47;;;3.10;99.90;;;;;;5102391;28;20801;-81
2023/02/15 02:19:27;;;;;;;87.17;47.83;;;3.10;99.90;;;;;;5087613;28;20446;-83
2023/02/15 02:22:17;;;;;;;85.17;48.70;;;3.10;99.90;;;;;;5099887;28;20449;-82
2023/02/15 02:25:03;;;;;;;82.40;47.73;;;3.10;99.90;;;;;;5089968;28;20496;-85
2023/02/15 02:27:39;;;;;;;91.57;49.37;;;3.10;99.90;;;;;;5084953;28;20449;-79
2023/02/15 02:31:01;;;;;;;88.03;49.13;;;3.10;99.90;;;;;;5097530;28;20441;-79
2023/02/15 02:33:55;;;;;;;88.93;47.37;;;3.00;99.90;;;;;;5097746;28;20456;-79
2023/02/15 02:36:32;;;;;;;84.47;47.53;;;3.00;99.90;;;;;;5098647;28;20441;-81
2023/02/15 02:39:23;;;;;;;84.30;48.40;;;2.90;99.90;;;;;;5097324;28;20445;-80
2023/02/15 02:41:57;;;;;;;85.70;48.07;;;2.90;99.90;;;;;;5097771;28;20446;-79
2023/02/15 02:44:28;;;;;;;86.63;48.37;;;2.90;99.90;;;;;;5097395;28;20541;-79
2023/02/15 02:46:59;;;;;;;80.97;46.97;;;2.90;99.90;;;;;;5097624;28;20456;-80
2023/02/15 02:49:33;;;;;;;89.73;48.87;;;2.80;99.90;;;;;;5096887;28;20444;-80
2023/02/15 02:52:03;;;;;;;92.73;52.13;;;2.80;99.90;;;;;;5096530;28;20453;-77
2023/02/15 02:54:31;;;;;;;87.63;48.80;;;2.90;99.90;;;;;;5096259;28;20929;-81
2023/02/15 02:57:02;;;;;;;85.43;50.13;;;2.90;99.90;;;;;;5099176;28;20443;-80
2023/02/15 02:59:33;;;;;;;100.28;56.72;;;2.70;99.90;;;;;;5098061;28;20446;-80
2023/02/15 03:02:07;;;;;;;95.80;53.20;;;2.70;99.90;;;;;;5091723;28;20208;-82
2023/02/15 03:04:38;;;;;;;101.27;54.93;;;2.70;99.90;;;;;;5086737;28;20856;-81
2023/02/15 03:07:08;;;;;;;97.83;53.87;;;2.70;99.90;;;;;;5087501;28;20945;-80
2023/02/15 03:09:42;;;;;;;98.33;51.30;;;2.70;99.90;;;;;;5088989;28;20461;-80
2023/02/15 03:12:10;;;;;;;103.43;53.57;;;2.70;99.90;;;;;;5088598;28;20505;-81
2023/02/15 03:14:40;;;;;;;99.53;52.63;;;2.70;99.90;;;;;;5095313;28;20469;-80
2023/02/15 03:17:08;;;;;;;97.97;52.73;;;2.80;99.90;;;;;;5095646;28;20821;-80
2023/02/15 03:19:41;;;;;;;101.37;53.17;;;2.70;99.90;;;;;;5096074;28;20437;-81
2023/02/15 03:22:12;;;;;;;91.30;50.33;;;2.70;99.90;;;;;;5081859;28;20437;-79
2023/02/15 03:24:43;;;;;;;92.80;50.10;;;2.60;99.90;;;;;;5095579;28;20835;-82
2023/02/15 03:27:16;;;;;;;90.97;50.87;;;2.60;99.90;;;;;;5081675;28;20457;-80
2023/02/15 03:29:45;;;;;;;89.37;49.13;;;2.60;99.90;;;;;;5095624;28;20434;-80
2023/02/15 03:32:15;;;;;;;94.97;51.73;;;2.50;99.90;;;;;;5091436;28;20937;-82
2023/02/15 03:34:43;;;;;;;91.17;51.13;;;2.40;99.90;;;;;;5087514;28;20491;-80
2023/02/15 03:37:16;;;;;;;91.37;51.40;;;2.30;99.90;;;;;;5094866;28;20449;-81
2023/02/15 03:39:51;;;;;;;85.40;49.73;;;2.40;99.90;;;;;;5095035;28;20446;-80
2023/02/15 03:42:23;;;;;;;94.17;49.73;;;2.30;99.90;;;;;;5094858;28;20452;-81
2023/02/15 03:44:56;;;;;;;89.87;48.07;;;2.30;99.90;;;;;;5094302;28;20490;-81
2023/02/15 03:47:28;;;;;;;93.33;50.30;;;2.30;99.90;;;;;;5094695;28;20437;-82
2023/02/15 03:50:00;;;;;;;88.03;47.53;;;2.30;99.90;;;;;;5085017;28;20442;-81
2023/02/15 03:52:29;;;;;;;82.97;47.07;;;2.30;99.90;;;;;;5078159;28;20437;-82
2023/02/15 03:54:57;;;;;;;92.57;48.70;;;2.40;99.90;;;;;;5094515;28;20449;-82
2023/02/15 04:03:23;;;;;;;88.83;47.00;;;2.60;99.90;;;;;;5094334;28;20441;-80
2023/02/15 04:05:52;;;;;;;90.33;48.67;;;2.70;99.90;;;;;;5088800;28;20462;-80
2023/02/15 04:08:18;;;;;;;89.17;48.97;;;2.70;99.90;;;;;;5088096;28;20959;-80
2023/02/15 04:10:54;;;;;;;96.33;48.33;;;2.80;99.90;;;;;;5088488;28;20452;-78
2023/02/15 04:13:22;;;;;;;89.53;49.13;;;2.90;99.90;;;;;;5080516;28;20473;-79
2023/02/15 04:16:03;;;;;;;92.27;49.13;;;3.00;99.90;;;;;;5094528;28;20453;-80
2023/02/15 04:26:47;;;;;;;89.50;47.73;;;2.90;99.90;;;;;;5093447;28;20429;-82
2023/02/15 04:29:14;;;;;;;94.03;47.33;;;2.90;99.90;;;;;;5094472;28;21012;-81
2023/02/15 04:31:42;;;;;;;92.77;48.67;;;2.90;99.90;;;;;;5094900;28;21016;-80
2023/02/15 04:34:09;;;;;;;88.50;47.67;;;2.90;99.90;;;;;;5094634;28;20832;-78
2023/02/15 04:36:38;;;;;;;88.00;49.63;;;2.80;99.90;;;;;;5095918;28;20445;-78
2023/02/15 04:39:05;;;;;;;90.63;48.80;;;2.70;99.90;;;;;;5093758;28;20445;-77
2023/02/15 04:41:32;;;;;;;92.73;47.70;;;2.70;99.90;;;;;;5093842;28;20437;-79
2023/02/15 04:44:00;;;;;;;92.13;48.47;;;2.70;99.90;;;;;;5093400;28;20492;-77
2023/02/15 04:46:27;;;;;;;91.00;48.23;;;2.70;99.90;;;;;;5080284;28;20500;-79
2023/02/15 04:48:54;;;;;;;90.90;48.73;;;2.80;99.90;;;;;;5093905;28;20449;-79
2023/02/15 04:51:21;;;;;;;88.77;47.90;;;2.70;99.90;;;;;;5093497;28;20931;-79
2023/02/15 04:53:52;;;;;;;102.47;50.27;;;2.70;99.90;;;;;;5093126;28;20446;-78
2023/02/15 04:56:20;;;;;;;91.43;50.43;;;2.70;99.90;;;;;;5093615;28;20474;-77
2023/02/15 04:58:47;;;;;;;92.87;48.07;;;2.70;99.90;;;;;;5094105;28;20452;-80
2023/02/15 05:01:14;;;;;;;89.83;50.23;;;2.70;99.90;;;;;;5093885;28;20450;-78
2023/02/15 05:03:41;;;;;;;88.33;49.00;;;2.80;99.90;;;;;;5093984;28;20446;-78
2023/02/15 05:06:08;;;;;;;92.33;48.37;;;2.80;99.90;;;;;;5080254;28;20458;-79
2023/02/15 05:08:35;;;;;;;100.07;51.97;;;2.70;99.90;;;;;;5093032;28;20516;-77
2023/02/15 05:11:03;;;;;;;91.90;49.33;;;2.70;99.90;;;;;;5093658;28;20446;-80
2023/02/15 05:13:30;;;;;;;92.60;50.00;;;2.80;99.90;;;;;;5093723;28;20468;-79
2023/02/15 05:15:56;;;;;;;92.03;49.63;;;2.70;99.90;;;;;;5093972;28;20453;-77
2023/02/15 05:18:23;;;;;;;102.90;50.10;;;2.70;99.90;;;;;;5093537;28;20442;-81
2023/02/15 05:20:50;;;;;;;103.20;52.77;;;2.60;99.90;;;;;;5093577;28;20453;-78
2023/02/15 05:23:17;;;;;;;99.40;50.13;;;2.60;99.90;;;;;;5093420;28;20450;-80
2023/02/15 05:28:35;;;;;;;114.47;60.70;;;2.70;99.90;;;;;;5093326;28;20417;-81
2023/02/15 05:31:05;;;;;;;102.77;53.40;;;2.70;99.90;;;;;;5093747;28;20209;-79
2023/02/15 05:33:33;;;;;;;104.00;50.13;;;2.70;99.90;;;;;;5092285;28;20446;-79
2023/02/15 05:36:00;;;;;;;92.07;49.87;;;2.80;99.90;;;;;;5080718;28;20450;-80
2023/02/15 05:38:26;;;;;;;100.90;49.97;;;2.80;99.90;;;;;;5096266;28;20449;-80
2023/02/15 05:40:53;;;;;;;95.97;50.53;;;2.80;99.90;;;;;;5097237;28;20456;-81
2023/02/15 05:43:20;;;;;;;89.87;49.33;;;2.80;99.90;;;;;;5097189;28;20456;-80
2023/02/15 05:45:49;;;;;;;99.30;50.30;;;2.80;99.90;;;;;;5097105;28;21010;-78
2023/02/15 05:48:19;;;;;;;96.77;48.90;;;2.80;99.90;;;;;;5097150;28;20442;-78
2023/02/15 05:50:46;;;;;;;96.97;49.40;;;2.80;99.90;;;;;;5097694;28;20480;-77
2023/02/15 05:53:13;;;;;;;96.57;48.50;;;2.80;99.90;;;;;;5097506;28;20446;-79
2023/02/15 05:55:41;;;;;;;100.30;48.97;;;2.90;99.90;;;;;;5096869;28;20445;-77
2023/02/15 05:58:08;;;;;;;94.23;47.87;;;2.80;99.90;;;;;;5096933;28;20453;-79
2023/02/15 06:00:35;;;;;;;96.87;50.67;;;2.80;99.90;;;;;;5097207;28;20441;-80
2023/02/15 06:03:04;;;;;;;98.70;47.60;;;2.70;99.90;;;;;;5098103;28;20959;-80
2023/02/15 06:05:30;;;;;;;97.87;49.60;;;2.80;99.90;;;;;;5097344;28;20496;-79
2023/02/15 06:07:57;;;;;;;97.67;50.40;;;2.80;99.90;;;;;;5097993;28;20442;-78
2023/02/15 06:10:24;;;;;;;95.70;48.23;;;2.70;99.90;;;;;;5097422;28;20454;-79
2023/02/15 06:12:51;;;;;;;92.57;47.90;;;2.70;99.90;;;;;;5097436;28;20465;-77
2023/02/15 06:15:18;;;;;;;103.13;50.20;;;2.70;99.90;;;;;;5096895;28;20457;-77
2023/02/15 06:17:45;;;;;;;94.37;48.30;;;2.70;99.90;;;;;;5096313;28;20449;-78
2023/02/15 06:20:15;;;;;;;92.03;47.20;;;2.60;99.90;;;;;;5097019;28;20453;-80
2023/02/15 06:22:43;;;;;;;91.10;45.77;;;2.60;99.90;;;;;;5096965;28;20446;-79
2023/02/15 06:25:11;;;;;;;93.43;46.13;;;2.50;99.90;;;;;;5097090;28;20854;-76
2023/02/15 06:27:38;;;;;;;102.15;57.22;;;2.50;99.90;;;;;;5097080;28;20438;-78
2023/02/15 06:30:07;;;;;;;90.47;48.90;;;2.50;99.90;;;;;;5097395;28;20213;-77
2023/02/15 06:32:34;;;;;;;91.50;45.63;;;2.50;99.90;;;;;;5097125;28;20437;-79
2023/02/15 06:35:02;;;;;;;90.57;47.43;;;2.50;99.90;;;;;;5097573;28;20823;-79
2023/02/15 06:37:32;;;;;;;92.87;44.73;;;2.50;99.90;;;;;;5097325;28;20940;-82
2023/02/15 06:40:03;;;;;;;88.23;45.83;;;2.60;99.90;;;;;;5096202;28;20448;-79
2023/02/15 06:42:31;;;;;;;96.73;45.07;;;2.60;99.90;;;;;;5093226;28;20456;-78
2023/02/15 06:45:00;;;;;;;82.03;42.60;;;2.50;99.90;;;;;;5095351;28;20489;-78
2023/02/15 06:47:27;;;;;;;92.60;43.77;;;2.60;99.90;;;;;;5096384;28;20775;-80
2023/02/15 06:49:53;;;;;;;83.53;43.93;;;2.60;99.90;;;;;;5087077;28;20465;-80
2023/02/15 06:52:21;;;;;;;87.67;44.33;;;2.60;99.90;;;;;;5096092;28;20449;-79
2023/02/15 06:54:49;;;;;;;87.37;42.57;;;2.70;99.90;;;;;;5093267;28;20452;-80
2023/02/15 06:57:16;;;;;;;88.95;45.05;;;2.70;99.90;;;;;;5090271;28;20368;-80
2023/02/15 06:59:44;;;;;;;126.70;45.60;;;2.80;99.90;;;;;;5094983;28;20203;-80
2023/02/15 07:02:12;;;;;;;109.30;44.43;;;2.80;99.90;;;;;;5095857;28;20475;-80
2023/02/15 07:04:40;;;;;;;90.33;44.70;;;2.80;99.90;;;;;;5095659;28;20477;-80
2023/02/15 07:07:10;;;;;;;121.03;46.53;;;2.80;99.90;;;;;;5090570;28;20456;-81
2023/02/15 07:09:37;;;;;;;107.13;46.10;;;2.80;99.90;;;;;;5090731;28;20445;-80
2023/02/15 07:14:50;;;;;;;83.17;43.87;;;2.80;99.90;;;;;;5082242;28;20824;-84
2023/02/15 07:17:17;;;;;;;92.47;44.93;;;2.80;99.90;;;;;;5096314;28;20445;-82
2023/02/15 07:19:45;;;;;;;83.73;45.27;;;2.80;99.90;;;;;;5096405;28;20442;-82
2023/02/15 07:22:14;;;;;;;87.40;45.23;;;2.80;99.90;;;;;;5095814;28;20442;-87
2023/02/15 07:24:41;;;;;;;87.67;45.63;;;2.80;99.90;;;;;;5096312;28;20478;-84
2023/02/15 07:27:09;;;;;;;83.10;45.77;;;2.80;99.90;;;;;;5093465;28;20469;-85
2023/02/15 07:29:36;;;;;;;81.43;43.07;;;2.80;99.90;;;;;;5094090;28;20441;-85
2023/02/15 07:32:03;;;;;;;84.80;45.37;;;2.60;99.90;;;;;;5088131;28;20468;-80
2023/02/15 07:34:30;;;;;;;84.83;43.33;;;2.70;99.90;;;;;;5093622;28;20449;-81
2023/02/15 07:36:57;;;;;;;75.17;42.63;;;2.80;99.90;;;;;;5087938;28;20438;-82
2023/02/15 07:39:25;;;;;;;78.50;42.33;;;2.80;99.90;;;;;;5087231;28;20529;-79
2023/02/15 07:41:52;;;;;;;87.47;45.53;;;2.90;99.90;;;;;;5085795;28;20446;-78
2023/02/15 07:44:20;;;;;;;83.83;44.10;;;2.90;99.90;;;;;;5094247;28;20464;-78
2023/02/15 07:46:47;;;;;;;81.33;44.03;;;2.90;99.90;;;;;;5091324;28;20442;-77
2023/02/15 07:49:14;;;;;;;88.37;42.73;;;3.00;99.90;;;;;;5093367;28;20445;-78
2023/02/15 07:51:42;;;;;;;76.23;43.70;;;3.00;99.90;;;;;;5096880;28;20805;-78
2023/02/15 07:54:09;;;;;;;77.97;42.27;;;3.00;99.90;;;;;;5097269;28;20454;-79
2023/02/15 07:56:37;;;;;;;83.70;43.53;;;3.10;99.90;;;;;;5097601;28;20445;-78
2023/02/15 07:59:05;;;;;;;99.07;60.23;;;3.10;99.90;;;;;;5095721;28;20413;-79
2023/02/15 08:01:36;;;;;;;82.63;46.07;;;3.40;99.90;;;;;;5082745;28;20450;-78
2023/02/15 08:04:07;;;;;;;78.23;42.17;;;3.40;99.90;;;;;;5095004;28;20466;-78
2023/02/15 08:06:35;;;;;;;73.70;41.87;;;3.30;99.90;;;;;;5096712;28;20505;-79
2023/02/15 08:09:04;;;;;;;86.83;43.97;;;3.40;99.90;;;;;;5096594;28;20520;-81
2023/02/15 08:11:39;;;;;;;78.03;42.43;;;3.60;99.90;;;;;;5084387;28;20438;-82
2023/02/15 08:14:08;;;;;;;74.33;40.83;;;3.60;99.90;;;;;;5084348;28;20473;-82
2023/02/15 08:16:39;;;;;;;77.37;41.83;;;3.60;99.90;;;;;;5100060;28;20805;-79
2023/02/15 08:19:08;;;;;;;81.43;41.47;;;3.70;99.90;;;;;;5096249;28;20837;-79
2023/02/15 08:21:37;;;;;;;69.93;40.80;;;3.70;99.90;;;;;;5095599;28;20441;-81
2023/02/15 08:24:06;;;;;;;75.53;40.37;;;3.80;99.90;;;;;;5096324;28;20457;-79
2023/02/15 08:26:34;;;;;;;75.73;40.53;;;3.90;99.90;;;;;;5095090;28;20489;-81
2023/02/15 08:29:02;;;;;;;78.82;48.80;;;4.00;99.90;;;;;;5092336;28;20448;-79
2023/02/15 08:31:30;;;;;;;67.77;40.30;;;4.10;99.90;;;;;;5091282;28;20258;-81
2023/02/15 08:33:59;;;;;;;64.10;39.33;;;4.30;99.90;;;;;;5092710;28;20437;-79
2023/02/15 08:36:29;;;;;;;64.90;37.00;;;4.30;99.90;;;;;;5092947;28;20442;-81
2023/02/15 08:38:58;;;;;;;65.83;37.67;;;4.40;99.90;;;;;;5092997;28;20326;-80
2023/02/15 08:41:26;;;;;;;60.40;36.27;;;4.50;99.90;;;;;;5090390;28;20574;-80
2023/02/15 08:43:55;;;;;;;66.10;37.70;;;4.50;99.90;;;;;;5090187;28;20442;-79
2023/02/15 08:46:23;;;;;;;68.23;36.57;;;4.60;99.90;;;;;;5091721;28;20232;-80
2023/02/15 08:48:50;;;;;;;57.93;34.87;;;4.70;99.90;;;;;;5092280;28;20637;-81
2023/02/15 08:51:20;;;;;;;58.90;35.33;;;4.80;99.90;;;;;;5090707;28;20220;-80
2023/02/15 08:53:49;;;;;;;61.43;35.10;;;4.80;99.90;;;;;;5093184;28;20673;-79
2023/02/15 08:56:17;;;;;;;59.23;34.10;;;4.90;99.90;;;;;;5094848;28;20209;-81
2023/02/15 08:58:45;;;;;;;55.20;33.17;;;5.00;99.90;;;;;;5091222;28;20205;-81
2023/02/15 09:01:17;;;;;;;52.90;32.10;;;5.00;99.90;;;;;;5094813;28;20658;-80
2023/02/15 09:03:45;;;;;;;53.57;32.17;;;5.10;99.90;;;;;;5085783;28;20672;-80
2023/02/15 09:06:14;;;;;;;51.83;32.70;;;5.20;99.90;;;;;;5076225;28;20700;-80
2023/02/15 09:08:46;;;;;;;49.77;32.00;;;5.30;99.90;;;;;;5076368;28;20591;-80
2023/02/15 09:11:22;;;;;;;50.17;31.87;;;5.40;99.90;;;;;;5078114;28;20201;-80
2023/02/15 09:13:49;;;;;;;52.60;31.03;;;5.40;99.90;;;;;;5086866;28;20585;-82
2023/02/15 09:16:28;;;;;;;51.53;30.93;;;5.50;99.90;;;;;;5094726;28;20205;-79
2023/02/15 09:18:57;;;;;;;52.43;31.50;;;5.70;99.90;;;;;;5096501;28;20209;-80
2023/02/15 09:21:26;;;;;;;50.07;31.47;;;5.70;99.90;;;;;;5095974;28;20209;-79
2023/02/15 09:23:58;;;;;;;49.07;31.93;;;5.80;99.90;;;;;;5094962;28;20212;-81
2023/02/15 09:26:25;;;;;;;47.80;30.00;;;5.70;99.90;;;;;;5087165;28;20275;-83
2023/02/15 09:29:00;;;;;;;46.17;31.07;;;5.80;99.90;;;;;;5084778;28;20201;-81
2023/02/15 09:31:33;;;;;;;46.60;29.23;;;5.80;99.90;;;;;;5080578;28;20295;-79
2023/02/15 09:34:01;;;;;;;47.33;29.77;;;5.90;99.90;;;;;;5093080;28;20205;-73
2023/02/15 09:36:32;;;;;;;50.43;30.23;;;6.10;99.90;;;;;;5093526;28;20223;-73
2023/02/15 09:39:07;;;;;;;48.90;30.33;;;6.20;99.90;;;;;;5092655;28;20201;-75
2023/02/15 09:41:56;;;;;;;47.13;28.40;;;6.20;99.90;;;;;;5093591;28;20196;-74
2023/02/15 09:44:35;;;;;;;44.67;28.50;;;6.40;99.90;;;;;;5092709;28;20212;-76
2023/02/15 09:47:17;;;;;;;42.20;27.30;;;6.50;99.90;;;;;;5095509;28;20320;-78
2023/02/15 09:49:53;;;;;;;41.03;27.57;;;6.60;99.90;;;;;;5095511;28;20221;-75
2023/02/15 09:52:41;;;;;;;43.17;27.23;;;6.70;99.90;;;;;;5093864;28;20205;-75
2023/02/15 09:55:34;;;;;;;47.97;27.47;;;6.70;99.90;;;;;;5095306;28;20579;-74
2023/02/15 09:58:08;;;;;;;43.33;26.20;;;6.70;99.90;;;;;;5096728;28;20288;-75
2023/02/15 10:00:45;;;;;;;42.63;27.07;;;6.80;99.90;;;;;;5096774;28;20206;-77
2023/02/15 10:03:26;;;;;;;47.70;27.37;;;6.90;99.90;;;;;;5096804;28;20204;-74
2023/02/15 10:06:11;;;;;;;40.37;26.47;;;7.00;99.90;;;;;;5095276;28;20320;-74
2023/02/15 10:09:03;;;;;;;50.27;26.40;;;7.30;99.90;;;;;;5088423;28;20286;-76
2023/02/15 10:11:44;;;;;;;38.03;25.00;;;7.50;99.90;;;;;;5087815;28;20209;-73
2023/02/15 10:14:39;;;;;;;39.27;24.80;;;7.60;99.90;;;;;;5085591;28;20568;-76
2023/02/15 10:17:19;;;;;;;39.93;24.17;;;7.80;99.90;;;;;;5094373;28;20197;-74
2023/02/15 10:19:58;;;;;;;40.80;24.90;;;7.90;99.90;;;;;;5094183;28;20197;-74
2023/02/15 10:22:36;;;;;;;42.67;24.10;;;8.00;99.90;;;;;;5093842;28;20567;-74
2023/02/15 10:25:15;;;;;;;43.43;25.43;;;8.00;99.90;;;;;;5096105;28;20207;-74
2023/02/15 10:27:47;;;;;;;38.43;23.87;;;7.90;99.90;;;;;;5098154;28;20311;-73
2023/02/15 10:30:15;;;;;;;42.37;25.03;;;7.80;99.90;;;;;;5100459;28;20640;-73
2023/02/15 10:32:54;;;;;;;36.40;25.27;;;7.90;99.90;;;;;;5099621;28;20219;-74
2023/02/15 10:35:31;;;;;;;37.27;24.13;;;8.10;99.90;;;;;;5097321;28;20205;-75
2023/02/15 10:38:23;;;;;;;38.33;24.17;;;8.20;99.90;;;;;;5085384;28;20187;-80
2023/02/15 10:41:04;;;;;;;47.57;23.70;;;8.30;99.90;;;;;;5092960;28;20193;-78
2023/02/15 10:43:50;;;;;;;39.73;25.23;;;8.50;99.90;;;;;;5093499;28;20220;-76
2023/02/15 10:46:34;;;;;;;34.27;23.30;;;8.60;99.90;;;;;;5096337;28;20231;-77
2023/02/15 10:49:23;;;;;;;41.47;30.48;;;8.70;99.90;;;;;;5095466;28;20426;-76
2023/02/15 10:52:04;;;;;;;40.20;25.10;;;8.70;99.90;;;;;;5098151;28;20209;-75
2023/02/15 10:54:38;;;;;;;40.27;24.80;;;8.70;99.90;;;;;;5095274;28;20227;-81
2023/02/15 10:57:16;;;;;;;41.00;26.03;;;8.70;99.90;;;;;;5096558;28;20672;-77
2023/02/15 11:00:04;;;;;;;38.40;25.30;;;8.80;99.90;;;;;;5095944;28;20202;-79
2023/02/15 11:02:44;;;;;;;40.63;26.40;;;8.90;99.90;;;;;;5096643;28;20212;-77
2023/02/15 11:05:28;;;;;;;39.20;24.97;;;8.80;99.90;;;;;;5096325;28;20283;-79
2023/02/15 11:07:59;;;;;;;47.33;25.43;;;8.70;99.90;;;;;;5096455;28;20221;-79
2023/02/15 11:10:31;;;;;;;41.03;25.63;;;8.80;99.90;;;;;;5095041;28;20205;-78
2023/02/15 11:13:01;;;;;;;38.77;25.70;;;8.80;99.90;;;;;;5095715;28;20217;-77
2023/02/15 11:15:35;;;;;;;41.53;26.23;;;8.90;99.90;;;;;;5095980;28;20212;-77
2023/02/15 11:18:10;;;;;;;39.17;24.63;;;8.90;99.90;;;;;;5095479;28;20197;-78
2023/02/15 11:20:43;;;;;;;38.27;25.27;;;9.10;99.90;;;;;;5083479;28;20201;-78
2023/02/15 11:23:16;;;;;;;35.37;24.43;;;9.10;99.90;;;;;;5089788;28;20210;-77
2023/02/15 11:25:45;;;;;;;38.17;24.97;;;8.90;99.90;;;;;;5090807;28;20208;-78
2023/02/15 11:28:19;;;;;;;37.80;24.87;;;8.90;99.90;;;;;;5090908;28;20205;-78
2023/02/15 11:30:52;;;;;;;41.87;25.43;;;9.00;99.90;;;;;;5088536;28;20213;-77
2023/02/15 11:33:23;;;;;;;39.73;24.80;;;9.10;99.90;;;;;;5094403;28;20201;-77
2023/02/15 11:35:55;;;;;;;45.35;32.70;;;9.40;99.90;;;;;;5093059;28;20719;-77
2023/02/15 11:38:25;;;;;;;40.23;27.90;;;9.40;99.90;;;;;;5094248;28;20550;-77
2023/02/15 11:40:57;;;;;;;42.30;24.80;;;9.50;99.90;;;;;;5094754;28;20314;-78
2023/02/15 11:43:31;;;;;;;36.87;25.17;;;9.60;99.90;;;;;;5098308;28;20205;-84
2023/02/15 11:45:59;;;;;;;44.77;25.00;;;9.70;99.90;;;;;;5099764;28;20234;-85
2023/02/15 11:48:26;;;;;;;41.00;25.80;;;9.60;99.90;;;;;;5096103;28;20208;-85
2023/02/15 11:50:53;;;;;;;36.40;25.07;;;9.70;99.90;;;;;;5092796;28;20197;-86
2023/02/15 11:53:24;;;;;;;39.57;26.47;;;9.90;99.90;;;;;;5077921;28;20217;-86
2023/02/15 11:55:52;;;;;;;41.93;25.73;;;9.90;99.90;;;;;;5085921;28;20198;-81
2023/02/15 11:58:29;;;;;;;35.73;25.50;;;10.00;99.90;;;;;;5089549;28;20208;-80
2023/02/15 12:01:01;;;;;;;46.80;26.70;;;10.10;99.90;;;;;;5092851;28;20198;-81
2023/02/15 12:03:35;;;;;;;37.70;25.10;;;9.90;99.90;;;;;;5094723;28;20201;-79
2023/02/15 12:06:04;;;;;;;37.10;24.77;;;10.00;99.90;;;;;;5085143;28;20693;-77
2023/02/15 12:08:39;;;;;;;45.00;27.97;;;10.10;99.90;;;;;;5089667;28;20201;-79
2023/02/15 12:11:12;;;;;;;42.47;26.00;;;10.00;99.90;;;;;;5094388;28;20201;-78
2023/02/15 12:13:56;;;;;;;39.33;26.20;;;10.10;99.90;;;;;;5093620;28;20213;-80
2023/02/15 12:16:24;;;;;;;40.90;25.47;;;10.10;99.90;;;;;;5094380;28;20238;-79
2023/02/15 12:18:55;;;;;;;38.07;25.07;;;10.30;99.90;;;;;;5094159;28;20695;-79
2023/02/15 12:21:27;;;;;;;42.67;26.77;;;10.40;99.90;;;;;;5093581;28;20205;-80
2023/02/15 12:23:57;;;;;;;38.17;26.20;;;10.40;99.90;;;;;;5093485;28;20202;-78
2023/02/15 12:26:28;;;;;;;38.87;26.40;;;10.60;99.90;;;;;;5093355;28;20268;-79
2023/02/15 12:29:01;;;;;;;37.63;25.73;;;10.40;99.90;;;;;;5093483;28;20198;-80
2023/02/15 12:31:37;;;;;;;41.23;27.17;;;10.50;99.90;;;;;;5093893;28;20202;-80
2023/02/15 12:34:11;;;;;;;39.20;26.33;;;10.60;99.90;;;;;;5093762;28;20227;-80
2023/02/15 12:36:46;;;;;;;38.67;26.60;;;10.60;99.90;;;;;;5082841;28;20679;-79
2023/02/15 12:39:22;;;;;;;40.27;26.60;;;10.80;99.90;;;;;;5090906;28;20206;-76
2023/02/15 12:42:00;;;;;;;37.83;25.73;;;10.90;99.90;;;;;;5093762;28;20236;-79
2023/02/15 12:44:29;;;;;;;39.37;25.43;;;11.00;99.90;;;;;;5093397;28;20206;-79
2023/02/15 12:47:00;;;;;;;39.73;26.13;;;11.00;99.90;;;;;;5091633;28;20593;-78
2023/02/15 12:49:29;;;;;;;35.53;25.77;;;11.30;99.90;;;;;;5093964;28;20209;-83
2023/02/15 12:51:57;;;;;;;44.77;27.37;;;11.40;99.90;;;;;;5091812;28;20210;-79
2023/02/15 12:54:35;;;;;;;40.03;25.90;;;11.50;99.90;;;;;;5092873;28;20711;-78
2023/02/15 12:57:26;;;;;;;41.17;26.77;;;11.60;99.90;;;;;;5092985;28;20198;-78
2023/02/15 12:59:55;;;;;;;42.67;26.80;;;11.60;99.90;;;;;;5093078;28;20222;-80
2023/02/15 13:02:27;;;;;;;38.80;24.57;;;11.60;99.90;;;;;;5093286;28;20207;-79
2023/02/15 13:04:54;;;;;;;40.53;26.80;;;11.60;99.90;;;;;;5092912;28;20666;-79
2023/02/15 13:07:22;;;;;;;42.60;27.03;;;11.70;99.90;;;;;;5092627;28;20232;-78
2023/02/15 13:09:50;;;;;;;39.03;25.83;;;11.70;99.90;;;;;;5092894;28;20650;-79
2023/02/15 13:12:23;;;;;;;40.17;27.43;;;11.80;99.90;;;;;;5092580;28;20584;-79
2023/02/15 13:14:52;;;;;;;43.40;26.03;;;12.00;99.90;;;;;;5092847;28;20211;-78
2023/02/15 13:17:24;;;;;;;39.27;26.43;;;12.00;99.90;;;;;;5092530;28;20250;-80
2023/02/15 13:19:54;;;;;;;42.00;27.83;;;12.30;99.90;;;;;;5092786;28;20197;-80